Time;durP1;ratioP1;P1;durP2;ratioP2;P2;SDS_P1;SDS_P2;PMS_P1;PMS_P2;Temp;Humidity;BMP_temperature;BMP_pressure;BME280_temperature;BME280_humidity;BME280_pressure;Samples;Min_cycle;Max_cycle;Signal;HPM_P1;HPM_P2
2022/05/25 00:00:26;;;;;;;5.28;3.85;;;10.40;99.90;;;;;;5049033;28;20045;-63
2022/05/25 00:02:54;;;;;;;3.53;3.22;;;10.40;99.90;;;;;;5050448;28;20411;-63
2022/05/25 00:05:20;;;;;;;3.53;3.05;;;10.40;99.90;;;;;;5049982;28;20438;-63
2022/05/25 00:07:46;;;;;;;4.47;3.00;;;10.30;99.90;;;;;;5048914;28;20132;-63
2022/05/25 00:10:12;;;;;;;3.40;3.10;;;10.30;99.90;;;;;;5048664;28;20037;-64
2022/05/25 00:12:39;;;;;;;3.63;3.10;;;10.30;99.90;;;;;;5050523;28;20044;-63
2022/05/25 00:15:08;;;;;;;4.10;2.80;;;10.30;99.90;;;;;;5048602;28;20037;-64
2022/05/25 00:17:33;;;;;;;3.15;2.85;;;10.30;99.90;;;;;;5049282;28;20045;-63
2022/05/25 00:19:59;;;;;;;4.43;3.20;;;10.30;99.90;;;;;;5032235;28;20114;-64
2022/05/25 00:22:26;;;;;;;3.05;2.70;;;10.30;99.90;;;;;;5050155;28;20045;-64
2022/05/25 00:24:56;;;;;;;3.65;2.83;;;10.30;99.90;;;;;;5050065;28;20040;-63
2022/05/25 00:27:21;;;;;;;5.22;2.90;;;10.30;99.90;;;;;;5049896;28;20037;-64
2022/05/25 00:29:47;;;;;;;5.07;2.80;;;10.30;99.90;;;;;;5048968;28;20128;-64
2022/05/25 00:32:12;;;;;;;4.43;2.40;;;10.30;99.90;;;;;;5049947;28;20044;-63
2022/05/25 00:34:38;;;;;;;3.72;3.15;;;10.20;99.90;;;;;;5049534;28;20116;-64
2022/05/25 00:37:04;;;;;;;5.15;3.30;;;10.20;99.90;;;;;;5051382;28;20388;-64
2022/05/25 00:39:30;;;;;;;4.05;3.13;;;10.20;99.90;;;;;;5053943;28;20048;-64
2022/05/25 00:41:55;;;;;;;4.82;3.03;;;10.20;99.90;;;;;;5052448;28;20120;-63
2022/05/25 00:44:22;;;;;;;6.95;3.40;;;10.20;99.90;;;;;;5052386;28;20548;-64
2022/05/25 00:46:48;;;;;;;4.45;3.28;;;10.10;99.90;;;;;;5053996;28;20483;-63
2022/05/25 00:49:29;;;;;;;4.05;2.90;;;10.10;99.90;;;;;;5053170;28;20057;-64
2022/05/25 00:52:07;;;;;;;5.18;3.40;;;10.10;99.90;;;;;;5052576;28;20044;-64
2022/05/25 00:54:38;;;;;;;3.40;3.10;;;10.10;99.90;;;;;;5051635;28;20043;-64
2022/05/25 00:57:13;;;;;;;3.72;2.90;;;10.10;99.90;;;;;;5053834;28;20560;-63
2022/05/25 01:00:07;;;;;;;3.75;3.03;;;10.00;99.90;;;;;;5053674;28;20388;-63
2022/05/25 01:02:41;;;;;;;3.63;3.13;;;10.00;99.90;;;;;;5051462;28;20086;-63
2022/05/25 01:05:07;;;;;;;4.15;3.17;;;10.00;99.90;;;;;;5053270;28;20428;-63
2022/05/25 01:07:43;;;;;;;4.90;3.38;;;10.00;99.90;;;;;;5051925;28;20120;-63
2022/05/25 01:10:41;;;;;;;5.72;3.42;;;10.00;99.90;;;;;;5052298;28;20040;-63
2022/05/25 01:13:19;;;;;;;6.03;3.60;;;10.00;99.90;;;;;;5050758;28;20045;-63
2022/05/25 01:16:18;;;;;;;4.15;3.20;;;10.00;99.90;;;;;;5051833;28;20049;-64
2022/05/25 01:19:06;;;;;;;3.63;3.33;;;10.00;99.90;;;;;;5052117;28;20045;-63
2022/05/25 01:21:47;;;;;;;4.72;3.45;;;9.90;99.90;;;;;;5051611;28;20048;-63
2022/05/25 01:24:25;;;;;;;8.45;3.70;;;9.90;99.90;;;;;;5052994;28;20029;-63
2022/05/25 01:26:53;;;;;;;4.63;3.55;;;9.90;99.90;;;;;;5052444;28;20093;-64
2022/05/25 01:29:22;;;;;;;6.38;4.03;;;9.90;99.90;;;;;;5053331;28;20040;-63
2022/05/25 01:31:57;;;;;;;6.65;4.00;;;9.90;99.90;;;;;;5053216;28;20159;-64
2022/05/25 01:34:31;;;;;;;4.78;3.85;;;9.90;99.90;;;;;;5053073;28;20120;-64
2022/05/25 01:37:16;;;;;;;6.68;4.20;;;9.90;99.90;;;;;;5051443;28;20045;-63
2022/05/25 01:39:58;;;;;;;4.93;4.18;;;9.90;99.90;;;;;;5052596;28;20087;-63
2022/05/25 01:42:34;;;;;;;5.03;4.35;;;9.90;99.90;;;;;;5050909;28;20048;-63
2022/05/25 01:45:05;;;;;;;7.40;4.40;;;9.90;99.90;;;;;;5052968;28;20087;-63
2022/05/25 01:47:34;;;;;;;5.03;4.50;;;9.80;99.90;;;;;;5050807;28;20049;-63
2022/05/25 01:50:10;;;;;;;6.28;4.57;;;9.80;99.90;;;;;;5052886;28;20041;-64
2022/05/25 01:52:41;;;;;;;8.55;5.10;;;9.80;99.90;;;;;;5052591;28;20041;-63
2022/05/25 01:55:13;;;;;;;5.78;4.68;;;9.80;99.90;;;;;;5051168;28;20043;-63
2022/05/25 01:57:44;;;;;;;5.30;4.40;;;9.80;99.90;;;;;;5049776;28;20040;-62
2022/05/25 02:00:24;;;;;;;5.10;4.57;;;9.70;99.90;;;;;;5052887;28;20029;-63
2022/05/25 02:05:36;;;;;;;5.55;4.85;;;9.70;99.90;;;;;;5052280;28;20454;-63
2022/05/25 02:08:30;;;;;;;5.15;4.65;;;9.70;99.90;;;;;;5051901;28;20067;-63
2022/05/25 02:11:08;;;;;;;8.20;5.40;;;9.70;99.90;;;;;;5051301;28;20111;-63
2022/05/25 02:14:00;;;;;;;6.07;5.03;;;9.70;99.90;;;;;;5051949;28;20064;-63
2022/05/25 02:16:50;;;;;;;7.20;5.53;;;9.70;99.90;;;;;;5052305;28;20044;-64
2022/05/25 02:19:31;;;;;;;8.05;5.72;;;9.60;99.90;;;;;;5050191;28;20048;-63
2022/05/25 02:22:11;;;;;;;7.55;5.68;;;9.60;99.90;;;;;;5052046;28;20483;-62
2022/05/25 02:25:01;;;;;;;7.38;5.72;;;9.60;99.90;;;;;;5052199;28;20057;-64
2022/05/25 02:27:39;;;;;;;6.88;6.07;;;9.60;99.90;;;;;;5050182;28;20041;-63
2022/05/25 02:30:25;;;;;;;6.55;5.40;;;9.60;99.90;;;;;;5051568;28;20419;-64
2022/05/25 02:33:03;;;;;;;6.85;5.95;;;9.60;99.90;;;;;;5050669;28;20484;-63
2022/05/25 02:35:30;;;;;;;6.68;5.97;;;9.60;99.90;;;;;;5052023;28;20041;-63
2022/05/25 02:38:04;;;;;;;8.02;5.70;;;9.60;99.90;;;;;;5051309;28;20044;-64
2022/05/25 02:40:30;;;;;;;6.60;5.45;;;9.60;99.90;;;;;;5051756;28;20044;-63
2022/05/25 02:42:55;;;;;;;6.13;5.53;;;9.50;99.90;;;;;;5051497;28;20045;-63
2022/05/25 02:45:21;;;;;;;7.75;5.88;;;9.50;99.90;;;;;;5051492;28;20043;-63
2022/05/25 02:47:48;;;;;;;6.60;5.90;;;9.50;99.90;;;;;;5051331;28;20053;-63
2022/05/25 02:50:14;;;;;;;6.32;5.75;;;9.50;99.90;;;;;;5051016;28;20045;-63
2022/05/25 02:52:39;;;;;;;7.15;6.43;;;9.50;99.90;;;;;;5051564;28;20400;-63
2022/05/25 02:55:05;;;;;;;6.32;5.72;;;9.50;99.90;;;;;;5051391;28;20392;-63
2022/05/25 02:57:32;;;;;;;8.02;6.55;;;9.50;99.90;;;;;;5050337;28;20040;-63
2022/05/25 02:59:57;;;;;;;9.45;6.70;;;9.50;99.90;;;;;;5050983;28;20032;-64
2022/05/25 03:02:23;;;;;;;7.70;6.15;;;9.40;99.90;;;;;;5051158;28;20098;-64
2022/05/25 03:04:49;;;;;;;8.05;6.40;;;9.40;99.90;;;;;;5051026;28;20045;-63
2022/05/25 03:07:15;;;;;;;7.72;6.93;;;9.40;99.90;;;;;;5050239;28;20045;-63
2022/05/25 03:09:40;;;;;;;7.65;6.57;;;9.40;99.90;;;;;;5051203;28;20272;-63
2022/05/25 03:12:08;;;;;;;8.25;6.43;;;9.40;99.90;;;;;;5048761;28;20076;-63
2022/05/25 03:14:34;;;;;;;7.10;6.40;;;9.40;99.90;;;;;;5049867;28;20040;-63
2022/05/25 03:17:08;;;;;;;8.45;6.88;;;9.40;99.90;;;;;;5050488;28;20036;-63
2022/05/25 03:19:37;;;;;;;8.80;7.10;;;9.40;99.90;;;;;;5049724;28;20051;-64
2022/05/25 03:22:03;;;;;;;7.65;6.88;;;9.40;99.90;;;;;;5050048;28;20047;-63
2022/05/25 03:24:28;;;;;;;8.65;7.53;;;9.30;99.90;;;;;;5050864;28;20032;-64
2022/05/25 03:26:54;;;;;;;9.35;7.22;;;9.30;99.90;;;;;;5065224;28;20403;-63
2022/05/25 03:29:20;;;;;;;10.25;7.15;;;9.30;99.90;;;;;;5050584;28;20069;-64
2022/05/25 03:31:46;;;;;;;9.10;7.00;;;9.30;99.90;;;;;;5050745;28;20470;-64
2022/05/25 03:34:12;;;;;;;9.45;7.13;;;9.30;99.90;;;;;;5049057;28;20071;-64
2022/05/25 03:36:38;;;;;;;8.05;7.07;;;9.30;99.90;;;;;;5049516;28;20036;-64
2022/05/25 03:39:03;;;;;;;9.25;7.68;;;9.30;99.90;;;;;;5050702;28;20047;-64
2022/05/25 03:41:29;;;;;;;9.98;7.97;;;9.30;99.90;;;;;;5050414;28;20463;-64
2022/05/25 03:43:55;;;;;;;9.48;7.50;;;9.30;99.90;;;;;;5050449;28;20041;-63
2022/05/25 03:46:20;;;;;;;10.45;7.50;;;9.30;99.90;;;;;;5049500;28;20052;-63
2022/05/25 03:48:46;;;;;;;9.75;7.50;;;9.30;99.90;;;;;;5050041;28;20049;-64
2022/05/25 03:51:12;;;;;;;9.45;6.82;;;9.30;99.90;;;;;;5050587;28;20025;-64
2022/05/25 03:53:38;;;;;;;11.13;7.53;;;9.40;99.90;;;;;;5050461;28;20163;-63
2022/05/25 03:56:05;;;;;;;8.80;7.38;;;9.40;99.90;;;;;;5049967;28;20116;-64
2022/05/25 03:58:31;;;;;;;10.55;7.68;;;9.50;99.90;;;;;;5050693;28;20094;-64
2022/05/25 04:00:56;;;;;;;8.77;7.15;;;9.40;99.90;;;;;;5049163;28;20131;-64
2022/05/25 04:03:22;;;;;;;10.55;7.47;;;9.50;99.90;;;;;;5049875;28;20037;-63
2022/05/25 04:05:47;;;;;;;9.65;7.55;;;9.60;99.90;;;;;;5048872;28;20551;-63
2022/05/25 04:08:13;;;;;;;8.90;7.22;;;9.60;99.90;;;;;;5049928;28;20040;-63
2022/05/25 04:10:39;;;;;;;8.45;7.45;;;9.70;99.90;;;;;;5050007;28;20047;-63
2022/05/25 04:13:05;;;;;;;9.93;7.43;;;9.70;99.90;;;;;;5049436;28;20041;-64
2022/05/25 04:15:32;;;;;;;9.45;8.20;;;9.80;99.90;;;;;;5049827;28;20456;-63
2022/05/25 04:17:57;;;;;;;10.15;7.82;;;9.80;99.90;;;;;;5049501;28;20077;-63
2022/05/25 04:20:25;;;;;;;10.82;7.57;;;9.80;99.90;;;;;;5049727;28;20098;-64
2022/05/25 04:22:51;;;;;;;11.23;8.18;;;9.90;99.90;;;;;;5050400;28;20040;-64
2022/05/25 04:25:19;;;;;;;9.88;7.88;;;10.00;99.90;;;;;;5049652;28;20063;-63
2022/05/25 04:27:46;;;;;;;10.75;8.35;;;10.10;99.90;;;;;;5049811;28;20091;-64
2022/05/25 04:30:15;;;;;;;11.38;8.55;;;10.10;99.90;;;;;;5050215;28;20040;-64
2022/05/25 04:32:41;;;;;;;9.05;7.80;;;10.20;99.90;;;;;;5050210;28;20507;-64
2022/05/25 04:35:09;;;;;;;8.07;7.25;;;10.30;99.90;;;;;;5049967;28;20033;-63
2022/05/25 04:37:52;;;;;;;10.70;7.57;;;10.30;99.90;;;;;;5049741;28;20048;-63
2022/05/25 04:40:36;;;;;;;11.55;8.00;;;10.40;99.90;;;;;;5048158;28;20088;-63
2022/05/25 04:43:07;;;;;;;8.73;7.80;;;10.50;99.90;;;;;;5050202;28;20040;-63
2022/05/25 04:45:34;;;;;;;9.57;7.75;;;10.50;99.90;;;;;;5048985;28;20102;-63
2022/05/25 04:48:01;;;;;;;9.90;8.13;;;10.60;99.90;;;;;;5049462;28;20514;-64
2022/05/25 04:50:31;;;;;;;9.63;8.60;;;10.70;99.90;;;;;;5048370;28;20051;-63
2022/05/25 04:52:59;;;;;;;10.45;7.85;;;10.80;99.90;;;;;;5050129;28;20446;-63
2022/05/25 04:58:22;;;;;;;10.25;7.72;;;10.90;99.90;;;;;;5049716;28;20511;-64
2022/05/25 05:00:49;;;;;;;9.50;7.82;;;11.00;99.90;;;;;;5049650;28;20041;-63
2022/05/25 05:03:15;;;;;;;10.70;8.48;;;11.10;99.90;;;;;;5049149;28;20089;-63
2022/05/25 05:05:41;;;;;;;10.88;7.88;;;11.10;99.90;;;;;;5049411;28;20041;-65
2022/05/25 05:08:07;;;;;;;10.55;8.02;;;11.20;99.90;;;;;;5049819;28;20167;-64
2022/05/25 05:10:34;;;;;;;9.48;7.78;;;11.30;99.90;;;;;;5048996;28;20471;-64
2022/05/25 05:13:04;;;;;;;10.90;8.77;;;11.30;99.90;;;;;;5049729;28;20059;-63
2022/05/25 05:15:34;;;;;;;10.48;7.97;;;11.40;99.90;;;;;;5049600;28;20037;-63
2022/05/25 05:18:00;;;;;;;10.88;8.13;;;11.50;99.90;;;;;;5048726;28;20045;-63
2022/05/25 05:20:26;;;;;;;8.70;7.47;;;11.60;99.90;;;;;;5049346;28;20060;-63
2022/05/25 05:22:51;;;;;;;11.82;8.35;;;11.70;99.90;;;;;;5050200;28;20040;-63
2022/05/25 05:25:17;;;;;;;11.25;8.27;;;11.70;99.90;;;;;;5053039;28;20472;-63
2022/05/25 05:27:43;;;;;;;10.45;8.18;;;11.80;99.90;;;;;;5052427;28;20450;-63
2022/05/25 05:30:12;;;;;;;8.52;7.65;;;11.90;99.90;;;;;;5053057;28;20045;-64
2022/05/25 05:32:37;;;;;;;11.40;8.45;;;12.00;99.90;;;;;;5050514;28;20095;-64
2022/05/25 05:35:04;;;;;;;13.13;9.55;;;12.10;99.90;;;;;;5051565;28;20033;-64
2022/05/25 05:37:37;;;;;;;11.18;8.68;;;12.10;99.90;;;;;;5050846;28;20123;-64
2022/05/25 05:40:07;;;;;;;12.35;9.15;;;12.20;99.90;;;;;;5052210;28;20052;-64
2022/05/25 05:42:33;;;;;;;16.38;9.15;;;12.30;99.90;;;;;;5052467;28;20055;-64
2022/05/25 05:45:04;;;;;;;12.45;9.52;;;12.40;99.90;;;;;;5052792;28;20033;-64
2022/05/25 05:47:41;;;;;;;12.38;9.57;;;12.50;99.90;;;;;;5051858;28;20048;-63
2022/05/25 05:50:07;;;;;;;14.35;9.60;;;12.60;99.90;;;;;;5034954;28;20073;-63
2022/05/25 05:52:35;;;;;;;13.15;8.60;;;12.60;99.90;;;;;;5050852;28;20039;-63
2022/05/25 05:55:02;;;;;;;18.58;9.70;;;12.80;99.90;;;;;;5052408;28;20126;-64
2022/05/25 05:57:28;;;;;;;14.85;9.85;;;12.90;99.90;;;;;;5051415;28;20180;-64
2022/05/25 05:59:53;;;;;;;15.13;10.05;;;13.00;99.90;;;;;;5052488;28;20033;-63
2022/05/25 06:02:19;;;;;;;12.30;9.65;;;13.10;99.90;;;;;;5050685;28;20040;-63
2022/05/25 06:04:45;;;;;;;12.52;9.57;;;13.20;99.90;;;;;;5052560;28;20037;-65
2022/05/25 06:07:11;;;;;;;14.07;10.30;;;13.30;99.90;;;;;;5051621;28;20052;-64
2022/05/25 06:09:36;;;;;;;13.10;9.60;;;13.50;99.90;;;;;;5051881;28;20492;-64
2022/05/25 06:12:02;;;;;;;14.48;10.18;;;13.60;99.90;;;;;;5047807;28;20041;-64
2022/05/25 06:14:28;;;;;;;21.10;10.68;;;13.60;99.90;;;;;;5045278;28;20072;-64
2022/05/25 06:19:38;;;;;;;14.18;10.25;;;13.80;99.90;;;;;;5050302;28;20420;-63
2022/05/25 06:22:13;;;;;;;14.65;9.93;;;13.90;99.90;;;;;;5049394;28;20037;-65
2022/05/25 06:24:45;;;;;;;14.48;9.73;;;13.90;99.90;;;;;;5044727;28;20500;-63
2022/05/25 06:27:12;;;;;;;15.50;10.20;;;14.00;99.90;;;;;;5045322;28;20132;-63
2022/05/25 06:29:43;;;;;;;13.57;9.40;;;14.00;99.90;;;;;;5052034;28;20041;-64
2022/05/25 06:32:10;;;;;;;12.32;10.07;;;14.00;99.90;;;;;;5050974;28;20041;-63
2022/05/25 06:34:38;;;;;;;11.90;9.40;;;14.00;99.90;;;;;;5049224;28;20133;-63
2022/05/25 06:37:04;;;;;;;15.80;9.07;;;14.20;99.90;;;;;;5050494;28;20435;-64
2022/05/25 06:39:36;;;;;;;14.27;9.35;;;14.30;99.90;;;;;;5049780;28;20029;-64
2022/05/25 06:42:03;;;;;;;14.65;8.95;;;14.40;99.90;;;;;;5048234;28;20041;-64
2022/05/25 06:44:29;;;;;;;15.98;9.43;;;14.50;99.90;;;;;;5048389;28;20507;-63
2022/05/25 06:46:54;;;;;;;14.15;9.35;;;14.60;99.90;;;;;;5041370;28;20032;-64
2022/05/25 06:49:20;;;;;;;12.95;8.90;;;14.60;99.90;;;;;;5045046;28;20179;-63
2022/05/25 06:51:46;;;;;;;14.35;8.80;;;14.70;99.90;;;;;;5043413;28;20110;-63
2022/05/25 06:54:16;;;;;;;14.05;8.07;;;14.80;99.90;;;;;;5049766;28;20068;-64
2022/05/25 06:56:42;;;;;;;12.80;8.18;;;14.90;99.90;;;;;;5050169;28;20063;-63
2022/05/25 06:59:08;;;;;;;12.45;7.82;;;15.00;99.90;;;;;;5050656;28;20052;-64
2022/05/25 07:01:35;;;;;;;9.68;7.38;;;15.00;99.90;;;;;;5049179;28;20439;-63
2022/05/25 07:04:01;;;;;;;17.13;8.20;;;15.10;99.90;;;;;;5047041;28;20041;-64
2022/05/25 07:06:27;;;;;;;9.07;7.03;;;15.10;99.90;;;;;;5048758;28;20052;-65
2022/05/25 07:08:53;;;;;;;9.35;6.80;;;15.20;99.90;;;;;;5050340;28;20037;-64
2022/05/25 07:11:20;;;;;;;10.13;7.10;;;15.10;99.90;;;;;;5046660;28;20116;-63
2022/05/25 07:13:46;;;;;;;10.55;7.60;;;15.20;99.90;;;;;;5048378;28;20041;-64
2022/05/25 07:16:14;;;;;;;8.93;6.28;;;15.20;99.90;;;;;;5049060;28;20040;-63
2022/05/25 07:18:41;;;;;;;12.38;5.97;;;15.20;99.90;;;;;;5049537;28;20037;-63
2022/05/25 07:21:14;;;;;;;12.15;5.95;;;15.20;99.90;;;;;;5045624;28;20032;-64
2022/05/25 07:23:41;;;;;;;11.95;6.38;;;15.40;99.90;;;;;;5049576;28;20044;-64
2022/05/25 07:26:08;;;;;;;9.60;5.68;;;15.50;99.90;;;;;;5051113;28;20061;-65
2022/05/25 07:28:35;;;;;;;7.18;5.90;;;15.60;99.90;;;;;;5049783;28;20041;-65
2022/05/25 07:31:13;;;;;;;11.30;6.07;;;15.60;99.90;;;;;;5050710;28;20163;-64
2022/05/25 07:33:41;;;;;;;10.10;6.10;;;15.70;99.90;;;;;;5051196;28;20044;-64
2022/05/25 07:36:10;;;;;;;8.10;6.22;;;15.70;99.90;;;;;;5049316;28;20037;-65
2022/05/25 07:38:39;;;;;;;8.75;5.72;;;15.80;99.90;;;;;;5048407;28;20517;-65
2022/05/25 07:41:05;;;;;;;11.27;5.15;;;15.90;99.90;;;;;;5048841;28;20056;-64
2022/05/25 07:43:32;;;;;;;9.75;5.15;;;16.00;99.90;;;;;;5054024;28;20037;-64
2022/05/25 07:45:58;;;;;;;8.60;4.88;;;16.10;99.90;;;;;;5047952;28;20045;-64
2022/05/25 07:48:24;;;;;;;7.80;4.88;;;16.10;99.90;;;;;;5065739;28;20155;-64
2022/05/25 07:50:50;;;;;;;8.10;4.93;;;15.90;99.90;;;;;;5048356;28;20051;-64
2022/05/25 07:56:03;;;;;;;6.55;4.10;;;15.90;99.90;;;;;;5050414;28;20052;-64
2022/05/25 07:58:30;;;;;;;9.70;3.95;;;16.00;99.90;;;;;;5050426;28;20044;-64
2022/05/25 08:00:58;;;;;;;4.93;3.53;;;16.20;99.90;;;;;;5048725;28;20037;-64
2022/05/25 08:06:09;;;;;;;10.23;3.63;;;16.70;99.90;;;;;;5049723;28;20049;-64
2022/05/25 08:08:36;;;;;;;4.82;3.80;;;16.90;99.90;;;;;;5050151;28;20041;-64
2022/05/25 08:11:06;;;;;;;5.28;3.58;;;17.10;99.90;;;;;;5048824;28;20040;-64
2022/05/25 08:13:35;;;;;;;5.45;3.35;;;17.00;99.90;;;;;;5048597;28;20110;-64
2022/05/25 08:16:02;;;;;;;5.47;3.05;;;17.10;99.90;;;;;;5048638;28;20076;-64
2022/05/25 08:18:27;;;;;;;5.68;3.50;;;17.30;99.90;;;;;;5050145;28;20120;-64
2022/05/25 08:20:53;;;;;;;6.68;3.35;;;17.50;99.90;;;;;;5049855;28;20457;-63
2022/05/25 08:23:18;;;;;;;5.43;2.97;;;17.80;99.90;;;;;;5060983;28;20052;-64
2022/05/25 08:25:45;;;;;;;4.93;2.95;;;17.60;99.90;;;;;;5050829;28;20025;-64
2022/05/25 08:28:12;;;;;;;4.30;2.65;;;17.60;99.90;;;;;;5049681;28;20033;-64
2022/05/25 08:30:39;;;;;;;7.30;2.83;;;17.40;99.90;;;;;;5048792;28;20438;-64
2022/05/25 08:33:06;;;;;;;3.65;3.00;;;17.60;99.90;;;;;;5048923;28;20098;-64
2022/05/25 08:35:32;;;;;;;5.10;2.92;;;17.90;99.90;;;;;;5048024;28;20480;-63
2022/05/25 08:37:58;;;;;;;4.18;2.83;;;17.80;99.90;;;;;;5050419;28;20037;-64
2022/05/25 08:40:26;;;;;;;7.53;3.20;;;17.90;99.90;;;;;;5047082;28;20148;-64
2022/05/25 08:43:03;;;;;;;5.03;3.00;;;17.70;99.90;;;;;;5045461;28;20100;-64
2022/05/25 08:45:39;;;;;;;4.15;3.00;;;17.50;99.90;;;;;;5048577;28;20098;-65
2022/05/25 08:48:08;;;;;;;4.60;3.20;;;17.20;99.90;;;;;;5041939;28;20052;-65
2022/05/25 08:50:36;;;;;;;3.58;2.90;;;17.10;99.90;;;;;;5041995;28;20037;-64
2022/05/25 08:53:02;;;;;;;5.35;3.10;;;17.10;99.90;;;;;;5046508;28;20067;-64
2022/05/25 08:56:06;;;;;;;5.13;3.13;;;17.10;99.90;;;;;;5046156;28;20076;-65
2022/05/25 08:58:57;;;;;;;8.05;2.97;;;17.30;99.90;;;;;;5049386;28;20040;-65
2022/05/25 09:01:32;;;;;;;7.25;3.47;;;17.30;99.90;;;;;;5049180;28;20045;-65
2022/05/25 09:04:27;;;;;;;5.20;3.17;;;17.40;99.90;;;;;;5048257;28;20041;-64
2022/05/25 09:07:08;;;;;;;7.00;2.88;;;17.60;99.90;;;;;;5053725;28;20436;-65
2022/05/25 09:09:40;;;;;;;4.05;2.95;;;17.50;99.90;;;;;;5053143;28;20079;-65
2022/05/25 09:12:34;;;;;;;3.20;2.70;;;17.30;99.90;;;;;;5049456;28;20428;-64
2022/05/25 09:15:15;;;;;;;4.10;3.00;;;17.20;99.90;;;;;;5047171;28;20047;-65
2022/05/25 09:18:10;;;;;;;3.17;2.20;;;17.20;99.90;;;;;;5053906;28;20628;-64
2022/05/25 09:20:44;;;;;;;4.22;3.20;;;17.40;99.90;;;;;;5044090;28;20049;-64
2022/05/25 09:23:13;;;;;;;3.67;3.05;;;17.50;99.90;;;;;;5046778;28;20037;-64
2022/05/25 09:25:41;;;;;;;5.25;3.33;;;17.60;99.90;;;;;;5051924;28;20431;-64
2022/05/25 09:28:19;;;;;;;4.20;2.88;;;17.70;99.90;;;;;;5050778;28;20041;-64
2022/05/25 09:30:48;;;;;;;5.63;2.70;;;18.10;99.90;;;;;;5052706;28;20041;-64
2022/05/25 09:33:34;;;;;;;4.88;2.10;;;18.50;99.90;;;;;;5044660;28;20032;-64
2022/05/25 09:36:08;;;;;;;3.78;1.83;;;18.90;99.90;;;;;;5045933;28;20048;-64
2022/05/25 09:38:42;;;;;;;4.93;2.00;;;18.70;99.90;;;;;;5048538;28;20053;-64
2022/05/25 09:41:12;;;;;;;5.93;2.60;;;18.50;99.90;;;;;;5052429;28;20040;-64
2022/05/25 09:43:39;;;;;;;4.88;2.35;;;18.30;99.90;;;;;;5049591;28;20454;-64
2022/05/25 09:46:14;;;;;;;3.33;2.10;;;18.10;99.90;;;;;;5051514;28;20037;-64
2022/05/25 09:49:02;;;;;;;3.72;2.00;;;18.20;99.90;;;;;;5048497;28;20060;-64
2022/05/25 09:51:44;;;;;;;3.40;1.92;;;18.30;99.90;;;;;;5048789;28;20120;-64
2022/05/25 09:54:26;;;;;;;2.83;2.20;;;17.90;99.90;;;;;;5049798;28;20132;-64
2022/05/25 09:57:02;;;;;;;3.38;2.25;;;17.70;99.90;;;;;;5050530;28;20476;-65
2022/05/25 10:00:00;;;;;;;3.40;1.92;;;17.30;99.90;;;;;;5049587;28;20041;-64
2022/05/25 10:02:58;;;;;;;3.38;1.90;;;17.10;99.90;;;;;;5050958;28;20049;-63
2022/05/25 10:05:48;;;;;;;2.88;2.45;;;16.90;99.90;;;;;;5048044;28;20032;-64
2022/05/25 10:08:20;;;;;;;3.83;2.78;;;16.70;99.90;;;;;;5047597;28;20045;-65
2022/05/25 10:10:50;;;;;;;8.48;2.50;;;16.60;99.90;;;;;;5047958;28;20056;-65
2022/05/25 10:13:25;;;;;;;3.22;2.30;;;16.60;99.90;;;;;;5044672;28;20036;-68
2022/05/25 10:15:51;;;;;;;3.15;2.50;;;16.80;99.90;;;;;;5049092;28;20488;-65
2022/05/25 10:18:41;;;;;;;4.95;2.83;;;17.30;99.90;;;;;;5049861;28;20051;-66
2022/05/25 10:21:14;;;;;;;3.58;2.80;;;17.60;99.90;;;;;;5051495;28;20048;-66
2022/05/25 10:23:42;;;;;;;4.40;3.30;;;17.90;99.90;;;;;;5050984;28;20055;-65
2022/05/25 10:26:15;;;;;;;3.95;3.05;;;18.10;99.90;;;;;;5050310;28;20043;-65
2022/05/25 10:28:53;;;;;;;3.53;3.22;;;18.30;99.90;;;;;;5049948;28;20061;-64
2022/05/25 10:37:32;;;;;;;3.90;3.50;;;18.60;99.90;;;;;;5049215;28;20045;-64
2022/05/25 10:40:01;;;;;;;7.03;3.60;;;18.60;99.90;;;;;;5047098;28;20037;-64
2022/05/25 10:42:45;;;;;;;4.65;3.17;;;18.70;99.90;;;;;;5049270;28;20041;-64
2022/05/25 10:45:28;;;;;;;4.18;3.42;;;18.70;99.90;;;;;;5050236;28;20056;-64
2022/05/25 10:48:07;;;;;;;8.93;3.38;;;18.70;99.90;;;;;;5049976;28;20499;-63
2022/05/25 10:50:55;;;;;;;9.27;3.90;;;18.70;99.90;;;;;;5050656;28;20052;-65
2022/05/25 10:53:43;;;;;;;7.35;4.53;;;18.70;99.90;;;;;;5049789;28;20556;-64
2022/05/25 10:56:36;;;;;;;8.65;4.88;;;18.60;99.90;;;;;;5049167;28;20431;-62
2022/05/25 10:59:15;;;;;;;10.80;4.28;;;18.50;99.90;;;;;;5049564;28;20048;-63
2022/05/25 11:02:11;;;;;;;5.60;4.32;;;18.70;99.90;;;;;;5049422;28;20045;-64
2022/05/25 11:05:02;;;;;;;5.85;4.43;;;19.00;99.90;;;;;;5049925;28;20044;-64
2022/05/25 11:07:37;;;;;;;5.55;3.83;;;19.20;99.90;;;;;;5048790;28;20057;-63
2022/05/25 11:10:40;;;;;;;8.40;4.35;;;18.90;99.90;;;;;;5050279;28;20083;-63
2022/05/25 11:13:58;;;;;;;8.30;4.40;;;18.60;99.90;;;;;;5049342;28;20051;-64
2022/05/25 11:16:50;;;;;;;8.18;4.20;;;18.40;99.90;;;;;;4932649;29;20047;-65
2022/05/25 11:19:40;;;;;;;6.28;4.30;;;18.00;99.90;;;;;;4931701;29;20106;-64
2022/05/25 11:22:28;;;;;;;6.20;4.07;;;17.60;99.90;;;;;;4915670;29;20048;-63
2022/05/25 11:25:31;;;;;;;6.60;4.60;;;17.40;99.90;;;;;;4934421;29;20403;-64
2022/05/25 11:28:10;;;;;;;6.35;4.60;;;17.30;99.90;;;;;;4929802;29;20400;-65
2022/05/25 11:30:47;;;;;;;7.28;4.40;;;17.20;99.90;;;;;;4912587;29;20082;-64
2022/05/25 11:33:33;;;;;;;5.68;4.60;;;17.00;99.90;;;;;;4912482;29;20123;-65
2022/05/25 11:36:28;;;;;;;8.13;4.97;;;16.80;99.90;;;;;;4931655;29;20439;-64
2022/05/25 11:39:20;;;;;;;6.03;5.22;;;16.70;99.90;;;;;;4915246;29;20059;-64
2022/05/25 11:42:18;;;;;;;9.82;4.60;;;16.40;99.90;;;;;;4936105;29;20104;-63
2022/05/25 11:45:03;;;;;;;6.18;4.80;;;16.00;99.90;;;;;;4933988;29;20051;-63
2022/05/25 11:47:32;;;;;;;5.70;4.93;;;15.50;99.90;;;;;;4929498;29;20052;-63
2022/05/25 11:50:13;;;;;;;4.95;4.30;;;15.10;99.90;;;;;;4924747;29;20071;-62
2022/05/25 11:53:04;;;;;;;6.80;4.75;;;15.10;99.90;;;;;;4990897;28;20125;-62
2022/05/25 11:55:44;;;;;;;8.00;4.35;;;15.30;99.90;;;;;;5049337;28;20088;-63
2022/05/25 11:58:36;;;;;;;5.65;3.95;;;15.80;99.90;;;;;;5050361;28;20040;-63
2022/05/25 12:01:15;;;;;;;4.32;2.88;;;16.10;99.90;;;;;;5049535;28;20033;-64
2022/05/25 12:03:45;;;;;;;3.85;2.33;;;16.40;99.90;;;;;;5049074;28;20049;-63
2022/05/25 12:06:47;;;;;;;6.13;2.72;;;16.70;99.90;;;;;;5049907;28;20094;-64
2022/05/25 12:09:45;;;;;;;5.30;3.00;;;16.90;99.90;;;;;;5049580;28;20098;-64
2022/05/25 12:12:16;;;;;;;4.47;2.42;;;17.20;99.90;;;;;;5042639;28;20287;-64
2022/05/25 12:15:25;;;;;;;4.97;2.20;;;17.40;99.90;;;;;;5050070;28;20041;-63
2022/05/25 12:18:32;;;;;;;5.30;2.38;;;17.50;99.90;;;;;;5031411;28;20052;-63
2022/05/25 12:21:11;;;;;;;2.67;1.50;;;17.60;99.90;;;;;;5028135;28;20529;-64
2022/05/25 12:23:41;;;;;;;3.90;1.80;;;17.50;99.90;;;;;;5027911;28;20103;-64
2022/05/25 12:26:14;;;;;;;4.47;1.83;;;17.30;99.90;;;;;;5027299;28;20038;-64
2022/05/25 12:28:43;;;;;;;5.65;1.80;;;17.20;99.90;;;;;;5029639;28;20087;-64
2022/05/25 12:31:14;;;;;;;3.70;1.52;;;17.00;99.90;;;;;;5010310;28;20388;-63
2022/05/25 12:33:41;;;;;;;5.00;1.45;;;16.90;99.90;;;;;;5031039;28;20045;-64
2022/05/25 12:36:10;;;;;;;3.05;1.05;;;16.90;99.90;;;;;;5031490;28;20377;-64
2022/05/25 12:38:39;;;;;;;6.95;1.17;;;16.90;99.90;;;;;;5028363;28;20053;-64
2022/05/25 12:41:31;;;;;;;4.47;1.00;;;17.00;99.90;;;;;;5027562;28;20124;-63
2022/05/25 12:44:00;;;;;;;6.05;1.23;;;17.10;99.90;;;;;;5015574;28;20052;-64
2022/05/25 12:49:43;;;;;;;7.47;0.93;;;17.20;99.90;;;;;;5015162;28;20469;-64
2022/05/25 12:52:26;;;;;;;5.85;1.17;;;17.20;99.90;;;;;;5030400;28;20049;-64
2022/05/25 12:55:13;;;;;;;6.00;1.02;;;17.40;99.90;;;;;;5041988;28;20052;-64
2022/05/25 12:57:52;;;;;;;3.00;0.80;;;17.50;99.90;;;;;;5052633;28;20507;-64
2022/05/25 13:00:26;;;;;;;7.47;1.10;;;17.50;99.90;;;;;;5053018;28;20094;-64
2022/05/25 13:02:52;;;;;;;8.43;1.02;;;17.50;99.90;;;;;;5053619;28;20503;-64
2022/05/25 13:05:47;;;;;;;5.72;1.00;;;17.50;99.90;;;;;;5053974;28;20094;-64
2022/05/25 13:08:47;;;;;;;4.10;1.23;;;17.60;99.90;;;;;;5048389;28;20103;-64
2022/05/25 13:11:41;;;;;;;3.63;0.88;;;17.50;99.90;;;;;;5053594;28;20762;-64
2022/05/25 13:14:20;;;;;;;4.80;0.85;;;17.60;99.90;;;;;;5052828;28;20069;-64
2022/05/25 13:16:45;;;;;;;8.30;0.70;;;17.60;99.90;;;;;;5053257;28;20045;-63
2022/05/25 13:19:32;;;;;;;5.25;1.15;;;17.70;99.90;;;;;;5053253;28;20045;-63
2022/05/25 13:22:07;;;;;;;5.28;0.75;;;17.80;99.90;;;;;;5053134;28;20073;-64
2022/05/25 13:24:41;;;;;;;4.15;1.15;;;17.70;99.90;;;;;;5051570;28;20083;-64
2022/05/25 13:27:20;;;;;;;5.20;0.85;;;17.80;99.90;;;;;;5051659;28;20051;-64
2022/05/25 13:30:11;;;;;;;4.80;0.65;;;17.70;99.90;;;;;;5052931;28;20048;-64
2022/05/25 13:32:39;;;;;;;5.45;0.82;;;17.70;99.90;;;;;;5053324;28;20036;-64
2022/05/25 13:35:29;;;;;;;4.78;0.90;;;17.70;99.90;;;;;;5052901;28;20564;-64
2022/05/25 13:38:17;;;;;;;3.22;0.73;;;17.70;99.20;;;;;;5049840;28;20076;-64
2022/05/25 13:40:55;;;;;;;7.10;0.80;;;17.70;99.90;;;;;;5051649;28;20036;-64